Flight ASX407X

  • Submitted By: Krzysztof H. Blaszkow
  • Departure Airport: Liverpool John Lennon Airport (EGGP)
  • Arrival Airport: Dublin (EIDW)
  • Aircraft: ATR 72-500 (SP-SCZ)
  • Flight Time: 01.09.07
  • Date Submitted: 12/17/2016
  • Status: Accepted
Flight Details
Gross Revenue:
(71 load / € 55.00 per unit
€ 3,905.00
Fuel Cost:
(464.932 fuel used @ 0.45 / unit)
€ 209.22

Additional Log Information:

View Log

[18:31] - Flight 1 ATR 72-500 House Livery
[18:31] - Flight ASX407X is ready to depart EGGP with a final destination of EIDW.
[18:31] - Parking Brake Applied
[18:31] - Beacon Light ON
[18:31] - Logo Lights ON
[18:31] - Boarding
[18:31] - ADF1 - 305.0
[18:31] - ADF2 - 371.0
[18:31] - NAV1 - 114.10
[18:31] - NAV2 - 111.75
[18:31] - COM1 - 122.80
[18:31] - COM2 - 125.27
[18:31] - Transponder - 2000
[18:32] - Wing Lights ON 6AGL
[18:34] - COM1 - 121.95
[18:37] - Transponder - 5065
[18:39] - Taxi Lights ON 6AGL
[18:39] - Navigation Lights ON 6AGL
[18:40] - Parking Brake Released
[18:40] - Pushing Back from the gate
[18:42] - Engine 1 Started
[18:42] - Engine 2 Started
[18:46] - Taxiing to Runway
[18:48] - COM1 - 122.80
[18:50] - Landing Lights ON 6AGL
[18:50] - Taxi Lights OFF 6AGL
[18:50] - Strobe Lights ON 6AGL
[18:52] - Taking Off with 71 passengers on board
[18:52] - Take off at 135kts, with a pitch of 6deg and 4393lbs of fuel on board
[18:52] - Wind Heading 183 | Wind Speed 3kts | Temperature 3 deg C
[18:52] - METAR Departure: EGGP 171820Z VRB02KT 9999 5000E R27/0325 BCFG NSC 04/04 Q1038

[18:52] - Gear up at 305AGL
[18:52] - Climbing to TOC
[18:56] - AutoPilot Engaged at 7192AGL
[18:58] - COM1 - 124.52
[18:58] - Landing Lights OFF 10348AGL
[19:04] - COM1 - 122.80
[19:04] - TOC reached
[19:04] - Cruise started
[19:06] - NAV1 - 111.75
[19:06] - NAV1 - 114.90
[19:09] - NAV2 - 111.35
[19:09] - NAV1 - 111.35
[19:09] - COM1 - 124.52
[19:12] - COM1 - 122.80
[19:13] - TOD reached
[19:13] - Descending to destination
[19:23] - COM1 - 131.15
[19:23] - Landing Shortly
[19:29] - COM1 - 118.60
[19:29] - Flaps to position 1 at 1381ft and 206kts
[19:29] - Gear down at 1296AGL
[19:30] - AutoPilot Disengaged at 660AGL
[19:31] - Landed at -277fpm. With 3511lbs of fuel onboard and a pitch angle of 6deg.
[19:31] - Wind Heading 203 | Wind Speed 8kts | Temperature 7 deg C
[19:31] - METAR Arrival: EIDW 171900Z 21006KT 9999 FEW030 BKN240 05/03 Q1037 NOSIG

[19:32] - Taxiing to Gate
[19:33] - Landing Lights ON 6AGL
[19:33] - Landing Lights OFF 6AGL
[19:33] - Taxi Lights ON 6AGL
[19:37] - Flaps to position 0
[19:38] - Parking Brake Applied
[19:38] - Arrived safely at EIDW. We hope you enjoyed your flight!
[19:39] - Engine 1 Stopped
[19:39] - Engine 2 Stopped
[19:39] - Taxi Lights OFF 6AGL
[19:39] - Strobe Lights OFF 6AGL
[19:39] - Navigation Lights OFF 6AGL
[19:39] - Wing Lights OFF 6AGL
[19:39] - Logo Lights OFF 6AGL
[19:41] - Flight 1 ATR 72-500 House Livery
[19:41] - MaxSim Rate: 1x
[19:41] - SiouxAcars ver: 1.0.1.2

Route Map